Home   Weather   USA   Frederick   Past weeks
Flag for USA

Past Weather in Frederick, Maryland, USA — Yesterday and Last 2 Weeks

Currently: 59 °F. Clear. (Weather station: Frederick Municipal Airport, USA). See more current weather

Past Weather in Frederick — Graph

°F

Frederick Temperature Yesterday

Maximum temperature yesterday: 84 °F (at 4:47 pm)
Minimum temperature yesterday: 61 °F (at 10:45 pm)
Average temperature yesterday: 71 °F

High & Low Weather Summary for the Past Weeks

 TemperatureHumidityPressure
High97 °F (Aug 3, 11:47 am)100% (Jul 29, 3:55 am)30.27 "Hg (Jul 29, 3:55 am)
Low59 °F (Aug 13, 12:25 am)28% (Aug 12, 5:47 pm)29.88 "Hg (Aug 2, 3:47 pm)
Average75 °F82%30.06 "Hg
* Reported Jul 29 2:05 am — Aug 13 2:25 am, Frederick. Weather by CustomWeather, © 2022

Note: Actual official high and low records may vary slightly from our data, if they occured in-between our weather recording intervals... More about our weather records

Frederick Weather History for the Previous 24 Hours

Scroll right to see more
 ConditionsComfort  
Time TempWeatherWind HumidityBarometerVisibility
2:25 am
Sat, Aug 13
59 °FClear.No wind88%30.11 "Hg10 mi
2:05 am59 °FClear.No wind88%30.11 "Hg7 mi
1:45 am59 °FClear.No wind94%30.11 "Hg10 mi
1:25 am59 °FClear.No wind94%30.11 "Hg7 mi
1:05 am59 °FClear.No wind94%30.11 "Hg7 mi
12:35 am59 °FClear.No wind100%30.11 "Hg7 mi
12:25 am59 °FClear.No wind100%30.10 "Hg10 mi
12:05 am61 °FClear.No wind94%30.09 "Hg7 mi
11:45 pm
Fri, Aug 12
61 °FClear.No wind94%30.09 "Hg7 mi
11:15 pm61 °FClear.No wind100%30.09 "Hg10 mi
10:45 pm61 °FClear.No wind100%30.08 "Hg7 mi
10:15 pm63 °FClear.No wind94%30.08 "Hg10 mi
10:05 pm63 °FClear.No wind94%30.07 "Hg10 mi
8:47 pm68 °FClear.No wind83%30.06 "Hg10 mi
6:47 pm82 °FSunny.6 mph30%30.04 "Hg10 mi
5:47 pm82 °FSunny.8 mph28%30.04 "Hg10 mi
4:47 pm84 °FSunny.9 mph29%30.04 "Hg10 mi
3:47 pm82 °FScattered clouds.6 mph32%30.04 "Hg10 mi
2:47 pm82 °FScattered clouds.10 mph35%30.05 "Hg10 mi
1:47 pm81 °FPartly sunny.10 mph39%30.07 "Hg10 mi
12:47 pm81 °FSunny.8 mph42%30.07 "Hg10 mi
11:47 am79 °FSunny.9 mph51%30.08 "Hg10 mi
10:47 am77 °FSunny.9 mph54%30.07 "Hg10 mi
9:47 am75 °FSunny.10 mph57%30.07 "Hg10 mi
8:47 am73 °FSunny.8 mph57%30.06 "Hg10 mi
7:47 am66 °FSunny.No wind88%30.05 "Hg10 mi
6:47 am63 °FSunny.No wind100%30.05 "Hg10 mi
6:25 am63 °FHeavy rain. Sunny.No wind94%30.03 "Hg10 mi
6:05 am66 °FRain. Clear.No wind78%30.03 "Hg10 mi
5:45 am66 °FRain. Clear.3 mph78%30.02 "Hg7 mi
5:05 am68 °FRain. Clear.5 mph69%30.01 "Hg10 mi
4:25 am68 °FRain. Clear.5 mph73%30.00 "Hg10 mi
3:55 am68 °FRain. Clear.No wind78%30.01 "Hg10 mi
3:15 am68 °FRain. Passing clouds.No wind94%30.00 "Hg10 mi
3:05 am68 °FRain. Passing clouds.No wind94%30.00 "Hg10 mi
Weather by CustomWeather, © 2022

See weather overview